Южная

Карта отелей и гостиниц, располагающихся рядом с аэропортом Южная :

Южная
Смоленск
Смоленская область 54° 44' 51.72" N, 32° 4' 7.7412" E
Код аэродрома ИКАО
HCT6
Код аэродрома RU
ХЦТ6
Координаты
N54.74770° E032.06882°
Превышение над уровнем моря
234
Основная полоса
13/31
Курс магнитный
131,2/311,2
Длина основной ВПП
27
Ширина основной ВПП
27
Покрытие основной ВПП
Твёрдое (асфальт)
Освещение ВПП
Нет
Тип: 
Вертодром
Класс аэродрома: 
Принадлежность: 
ГА
Статус: 
Действующий
Сайт: 
E-mail аэродрома: 
Страна: 
Россия
Регион: 
Смоленская область
Город: 
Смоленск
Дополнительная информация: 
Оператор: АК "ЗАО "Смоленскаэротранс".


Найти трансфер

С помощью этой формы Вы можете найти трансфер из аэропорта Южная в город, аэропорт или вокзал:

Погода в аэропортах:

Авиационная погода в Вадсё

Регион: 
Погода METAR: 
ENVD 212250Z AUTO 03011KT 9999 -RA SCT019/// OVC033/// 03/01 Q1013
Время наблюдения
2022-05-21T22:50:00Z
Температура C
3.0
Точка росы
1.0
Направление ветра
30
Скорость ветра (узлы)
11
Метео видимость
6.21
Облачность
SCT
OVC
Нижняя граница облачности (футы)
1900
3300
Явления погоды
-RA
Условия полета
VFR
SCT – разбросанная отдельная облачность; OVC – сплошная облачность;
-RA - слабый дождь;

Авиационная погода в Чимкенте

Регион: 
Погода METAR: 
UAII 212300Z 21006MPS 9999 -SHRA BKN046CB 15/13 Q1012 NOSIG RMK QFE722/0963
Время наблюдения
2022-05-21T23:00:00Z
Температура C
15.0
Точка росы
13.0
Направление ветра
210
Скорость ветра (узлы)
12
Метео видимость
6.21
Облачность
BKN
Нижняя граница облачности (футы)
4600
Явления погоды
-SHRA
Условия полета
VFR
Аэропорт подробнее: 
BKN – значительная (рассеянная, разорванная) облачность;
-SHRA - слабый ливневой дождь;

Авиационная погода в Минске

Регион: 
Погода METAR: 
UMMS 212300Z 26002MPS 240V310 6000 -RA BKN003 OVC016 09/09 Q0998 NOSIG RMK QBB110
Время наблюдения
2022-05-21T23:00:00Z
Температура C
9.0
Точка росы
9.0
Направление ветра
260
Скорость ветра (узлы)
4
Метео видимость
3.73
Облачность
BKN
OVC
Нижняя граница облачности (футы)
300
1600
Явления погоды
-RA
Условия полета
LIFR
Аэропорт подробнее: 
BKN – значительная (рассеянная, разорванная) облачность; OVC – сплошная облачность;
-RA - слабый дождь;

Авиационная погода в Витебске

Регион: 
Погода METAR: 
UMII 212300Z 06004G07MPS 4600 -RA OVC009 08/07 Q1000 TEMPO 2000 RA BKN005
Время наблюдения
2022-05-21T23:00:00Z
Температура C
8.0
Точка росы
7.0
Направление ветра
60
Скорость ветра (узлы)
8
Метео видимость
2.86
Облачность
OVC
Нижняя граница облачности (футы)
900
Явления погоды
-RA
Условия полета
IFR
OVC – сплошная облачность;
-RA - слабый дождь;